Jork Reliance — V2CL2 — position and weather

sailwx.info

Track history (hours):
 
Tides and Currents Weather Stations Pressure Air Temp Water Temp Dewpoint Dewpoint Depression Visibility Wind Speed Wind Dir Waves Ship Positions

Jork Reliance

Last reported at 2014-Aug-01 03:33 UTC. Time now 2014-Aug-01 03:44 UTC.
Position N 51°02' E 002°10'.

Length 141 m; draft 6.1 m.

Type: Ship (hazmat cat A). MMSI: 305033000.

Date/timePositionNaut miles runAvg speedWind from/ knotsBaromVisibWave heightAir tempDewpointWater temp
2014-Aug-01 03:33N 51°02' E 002°10'1413.9
2014-Aug-01 02:33N 51°02' E 001°48'2316.1
2014-Aug-01 01:07N 50°45' E 001°23'916.4
2014-Aug-01 00:33N 50°39' E 001°12'1616.3
2014-Jul-31 23:33N 50°31' E 000°50'1716.9
2014-Jul-31 22:33N 50°25' E 000°25'1816.7
2014-Jul-31 21:27N 50°20' W 000°03'1416.0
2014-Jul-31 20:33N 50°16' W 000°24'1515.2
2014-Jul-31 19:33N 50°12' W 000°47'1514.0
2014-Jul-31 18:31N 50°09' W 001°09'1412.6
2014-Jul-31 17:25N 50°05' W 001°30'20212.0
2014-Jul-31 00:33N 47°44' W 005°11'1614.5
2014-Jul-30 23:27N 47°33' W 004°54'18414.1
2014-Jul-30 10:26N 45°36' W 001°26'1415.2
2014-Jul-30 09:29N 45°37' W 001°06'1 0.0
2014-Jul-29 00:30N 45°38' W 001°07'1313.4
2014-Jul-28 23:33N 45°36' W 001°25'19415.8
2014-Jul-28 11:18N 47°40' W 005°03'20411.3
2014-Jul-27 17:17N 49°49' W 001°04'1216.6
2014-Jul-27 16:33N 49°44' W 000°47'1717.1
2014-Jul-27 15:33N 49°36' W 000°24'1616.3
2014-Jul-27 14:33N 49°30' W 000°01'6 5.9
2014-Jul-27 13:32N 49°28' E 000°08'0 0.0
2014-Jul-27 12:32N 49°28' E 000°08'0 0.0
2014-Jul-27 11:32N 49°28' E 000°08'0 0.0
2014-Jul-27 10:32N 49°28' E 000°08'0 0.0
2014-Jul-27 09:32N 49°28' E 000°08'0 0.0
2014-Jul-27 08:32N 49°28' E 000°08'0 0.0
2014-Jul-27 07:32N 49°28' E 000°08'0 0.0
2014-Jul-27 06:32N 49°28' E 000°08'0 0.0
2014-Jul-27 05:32N 49°28' E 000°08'0 0.0
2014-Jul-27 04:32N 49°28' E 000°08'0 0.0
2014-Jul-27 03:32N 49°28' E 000°08'0 0.0
2014-Jul-27 02:32N 49°28' E 000°08'0 0.0
2014-Jul-27 01:32N 49°28' E 000°08'0 0.0
2014-Jul-27 00:32N 49°28' E 000°08'0 0.0
2014-Jul-26 23:32N 49°28' E 000°08'0 0.0
2014-Jul-26 22:32N 49°28' E 000°08'0 0.0
2014-Jul-26 21:32N 49°28' E 000°08'0 0.0
2014-Jul-26 20:32N 49°28' E 000°08'0 0.0
2014-Jul-26 19:32N 49°28' E 000°08'0 0.0
2014-Jul-26 18:32N 49°28' E 000°08'0 0.0
2014-Jul-26 17:34N 49°28' E 000°08'1111.0
2014-Jul-26 16:33N 49°32' W 000°08'1111.2
2014-Jul-26 15:33N 49°43' W 000°11'5210.5
2014-Jul-26 10:33N 50°31' E 000°18'1110.8
2014-Jul-26 09:33N 50°35' E 000°34'1211.7
2014-Jul-26 08:33N 50°42' E 000°48'1211.6
2014-Jul-26 07:33N 50°50' E 001°02'1313.3
2014-Jul-26 06:33N 50°59' E 001°18'1515.1
2014-Jul-26 05:34N 51°08' E 001°36'1413.7
2014-Jul-26 04:33N 51°18' E 001°52'1010.2
2014-Jul-26 03:34N 51°25' E 002°04'2311.1
2014-Jul-26 01:32N 51°23' E 002°40'1212.5
2014-Jul-26 00:33N 51°23' E 002°59'1313.0
2014-Jul-25 23:34N 51°24' E 003°20'1111.2
2014-Jul-25 22:34N 51°26' E 003°38'1211.5
2014-Jul-25 21:33N 51°22' E 003°55'9 9.2
2014-Jul-25 20:33N 51°23' E 004°09'5 5.2
2014-Jul-25 19:34N 51°21' E 004°17'0 0.1
2014-Jul-25 18:33N 51°21' E 004°17'2 2.1
2014-Jul-25 17:32N 51°19' E 004°20'0 0.0
2014-Jul-25 16:29N 51°19' E 004°20'0 0.0
2014-Jul-25 15:32N 51°19' E 004°20'0 0.0
2014-Jul-25 14:32N 51°20' E 004°20'0 0.0
2014-Jul-25 13:29N 51°19' E 004°20'0 0.0
2014-Jul-25 12:32N 51°19' E 004°20'0 0.0
2014-Jul-25 11:32N 51°19' E 004°20'0 0.0
2014-Jul-25 10:32N 51°19' E 004°20'0 0.0
2014-Jul-25 09:32N 51°19' E 004°20'0 0.0
2014-Jul-25 08:32N 51°20' E 004°20'0 0.0
2014-Jul-25 07:32N 51°19' E 004°20'0 0.0
2014-Jul-25 06:32N 51°19' E 004°20'0 0.0
2014-Jul-25 05:32N 51°19' E 004°20'0 0.0
2014-Jul-25 04:32N 51°19' E 004°20'0 0.0
2014-Jul-25 03:32N 51°20' E 004°20'2 2.0
2014-Jul-25 02:34N 51°21' E 004°17'0 0.0
2014-Jul-25 01:34N 51°21' E 004°17'3 2.5
2014-Jul-25 00:33N 51°22' E 004°14'5 5.3
2014-Jul-24 23:34N 51°22' E 004°05'6 6.3
2014-Jul-24 22:33N 51°22' E 003°55'1313.2
2014-Jul-24 21:33N 51°26' E 003°35'1615.5
2014-Jul-24 20:34N 51°38' E 003°20'1111.3
2014-Jul-24 19:33N 51°49' E 003°13'1 0.6
2014-Jul-24 18:33N 51°49' E 003°13'3 3.4
2014-Jul-24 17:33N 51°50' E 003°19'1312.7
2014-Jul-24 16:33N 51°54' E 003°39'4 3.8
2014-Jul-24 15:32N 51°56' E 003°43'0 0.1
2014-Jul-24 14:32N 51°56' E 003°44'0 0.1
2014-Jul-24 13:32N 51°56' E 003°43'0 0.0
2014-Jul-24 12:32N 51°56' E 003°43'0 0.1
2014-Jul-24 11:32N 51°56' E 003°43'0 0.2
2014-Jul-24 10:32N 51°56' E 003°43'0 0.0
2014-Jul-24 09:32N 51°56' E 003°43'0 0.0
2014-Jul-24 08:32N 51°56' E 003°43'0 0.0
2014-Jul-24 07:32N 51°56' E 003°43'0 0.0
2014-Jul-24 06:32N 51°56' E 003°43'0 0.0
2014-Jul-24 05:32N 51°56' E 003°43'0 0.0
2014-Jul-24 04:32N 51°56' E 003°43'0 0.0
2014-Jul-24 03:32N 51°56' E 003°43'0 0.1
2014-Jul-24 02:32N 51°56' E 003°44'0 0.1
2014-Jul-24 01:32N 51°56' E 003°43'0 0.0
2014-Jul-24 00:32N 51°56' E 003°44'0 0.0
2014-Jul-23 23:32N 51°56' E 003°43'0 0.2
2014-Jul-23 22:32N 51°56' E 003°43'0 0.1
2014-Jul-23 21:32N 51°56' E 003°43'0 0.0
2014-Jul-23 20:32N 51°56' E 003°43'0 0.0
2014-Jul-23 19:32N 51°56' E 003°43'0 0.0
2014-Jul-23 18:32N 51°56' E 003°43'0 0.0
2014-Jul-23 17:32N 51°56' E 003°43'0 0.0
2014-Jul-23 16:32N 51°56' E 003°43'0 0.1
2014-Jul-23 15:32N 51°56' E 003°43'0 0.1
2014-Jul-23 14:32N 51°56' E 003°43'0 0.1
2014-Jul-23 13:32N 51°56' E 003°43'0 0.0
2014-Jul-23 12:26N 51°56' E 003°44'0 0.0
2014-Jul-23 11:32N 51°56' E 003°44'0 0.2
2014-Jul-23 10:29N 51°56' E 003°43'0 0.0
2014-Jul-23 09:32N 51°56' E 003°43'0 0.0
2014-Jul-23 08:32N 51°56' E 003°43'0 0.0
2014-Jul-23 07:32N 51°56' E 003°43'0 0.0
2014-Jul-23 06:32N 51°56' E 003°43'0 0.0
2014-Jul-23 05:32N 51°56' E 003°43'0 0.0
2014-Jul-23 04:32N 51°56' E 003°43'0 0.0
2014-Jul-23 03:29N 51°56' E 003°43'0 0.1
2014-Jul-23 02:32N 51°56' E 003°44'0 0.1
2014-Jul-23 01:32N 51°56' E 003°44'0 0.0
2014-Jul-23 00:32N 51°56' E 003°44'0 0.1
2014-Jul-22 23:32N 51°56' E 003°43'0 0.2
2014-Jul-22 22:32N 51°56' E 003°43'0 0.0
2014-Jul-22 21:32N 51°56' E 003°43'0 0.1
2014-Jul-22 20:32N 51°56' E 003°43'0 0.0
2014-Jul-22 19:32N 51°56' E 003°43'0 0.0
2014-Jul-22 18:32N 51°56' E 003°43'0 0.0
2014-Jul-22 17:32N 51°56' E 003°43'0 0.0
2014-Jul-22 16:32N 51°56' E 003°43'0 0.0
2014-Jul-22 15:32N 51°56' E 003°43'0 0.0
2014-Jul-22 14:32N 51°56' E 003°43'0 0.0
2014-Jul-22 13:32N 51°56' E 003°44'0 0.0
2014-Jul-22 12:32N 51°56' E 003°44'0 0.1
2014-Jul-22 11:29N 51°56' E 003°43'0 0.0
2014-Jul-22 10:32N 51°56' E 003°44'0 0.1
2014-Jul-22 09:29N 51°56' E 003°43'0 0.1
2014-Jul-22 08:32N 51°56' E 003°43'0 0.1
2014-Jul-22 07:29N 51°56' E 003°43'0 0.0
2014-Jul-22 06:23N 51°56' E 003°43'0 0.0
2014-Jul-22 05:23N 51°56' E 003°43'0 0.0
2014-Jul-22 04:29N 51°56' E 003°43'  
Track history (hours):
 
Tides and Currents Weather Stations Pressure Air Temp Water Temp Dewpoint Dewpoint Depression Visibility Wind Speed Wind Dir Waves Ship Positions

Jork Reliance

Last reported at 2014-Aug-01 03:33 UTC. Time now 2014-Aug-01 03:44 UTC.
Position N 51°02' E 002°10'.

Length 141 m; draft 6.1 m.

Type: Ship (hazmat cat A). MMSI: 305033000.

Date/timePositionNaut miles runAvg speedWind from/ knotsBaromVisibWave heightAir tempDewpointWater temp
2014-Aug-01 03:33N 51°02' E 002°10'1413.9
2014-Aug-01 02:33N 51°02' E 001°48'2316.1
2014-Aug-01 01:07N 50°45' E 001°23'916.4
2014-Aug-01 00:33N 50°39' E 001°12'1616.3
2014-Jul-31 23:33N 50°31' E 000°50'1716.9
2014-Jul-31 22:33N 50°25' E 000°25'1816.7
2014-Jul-31 21:27N 50°20' W 000°03'1416.0
2014-Jul-31 20:33N 50°16' W 000°24'1515.2
2014-Jul-31 19:33N 50°12' W 000°47'1514.0
2014-Jul-31 18:31N 50°09' W 001°09'1412.6
2014-Jul-31 17:25N 50°05' W 001°30'20212.0
2014-Jul-31 00:33N 47°44' W 005°11'1614.5
2014-Jul-30 23:27N 47°33' W 004°54'18414.1
2014-Jul-30 10:26N 45°36' W 001°26'1415.2
2014-Jul-30 09:29N 45°37' W 001°06'1 0.0
2014-Jul-29 00:30N 45°38' W 001°07'1313.4
2014-Jul-28 23:33N 45°36' W 001°25'19415.8
2014-Jul-28 11:18N 47°40' W 005°03'20411.3
2014-Jul-27 17:17N 49°49' W 001°04'1216.6
2014-Jul-27 16:33N 49°44' W 000°47'1717.1
2014-Jul-27 15:33N 49°36' W 000°24'1616.3
2014-Jul-27 14:33N 49°30' W 000°01'6 5.9
2014-Jul-27 13:32N 49°28' E 000°08'0 0.0
2014-Jul-27 12:32N 49°28' E 000°08'0 0.0
2014-Jul-27 11:32N 49°28' E 000°08'0 0.0
2014-Jul-27 10:32N 49°28' E 000°08'0 0.0
2014-Jul-27 09:32N 49°28' E 000°08'0 0.0
2014-Jul-27 08:32N 49°28' E 000°08'0 0.0
2014-Jul-27 07:32N 49°28' E 000°08'0 0.0
2014-Jul-27 06:32N 49°28' E 000°08'0 0.0
2014-Jul-27 05:32N 49°28' E 000°08'0 0.0
2014-Jul-27 04:32N 49°28' E 000°08'0 0.0
2014-Jul-27 03:32N 49°28' E 000°08'0 0.0
2014-Jul-27 02:32N 49°28' E 000°08'0 0.0
2014-Jul-27 01:32N 49°28' E 000°08'0 0.0
2014-Jul-27 00:32N 49°28' E 000°08'0 0.0
2014-Jul-26 23:32N 49°28' E 000°08'0 0.0
2014-Jul-26 22:32N 49°28' E 000°08'0 0.0
2014-Jul-26 21:32N 49°28' E 000°08'0 0.0
2014-Jul-26 20:32N 49°28' E 000°08'0 0.0
2014-Jul-26 19:32N 49°28' E 000°08'0 0.0
2014-Jul-26 18:32N 49°28' E 000°08'0 0.0
2014-Jul-26 17:34N 49°28' E 000°08'1111.0
2014-Jul-26 16:33N 49°32' W 000°08'1111.2
2014-Jul-26 15:33N 49°43' W 000°11'5210.5
2014-Jul-26 10:33N 50°31' E 000°18'1110.8
2014-Jul-26 09:33N 50°35' E 000°34'1211.7
2014-Jul-26 08:33N 50°42' E 000°48'1211.6
2014-Jul-26 07:33N 50°50' E 001°02'1313.3
2014-Jul-26 06:33N 50°59' E 001°18'1515.1
2014-Jul-26 05:34N 51°08' E 001°36'1413.7
2014-Jul-26 04:33N 51°18' E 001°52'1010.2
2014-Jul-26 03:34N 51°25' E 002°04'2311.1
2014-Jul-26 01:32N 51°23' E 002°40'1212.5
2014-Jul-26 00:33N 51°23' E 002°59'1313.0
2014-Jul-25 23:34N 51°24' E 003°20'1111.2
2014-Jul-25 22:34N 51°26' E 003°38'1211.5
2014-Jul-25 21:33N 51°22' E 003°55'9 9.2
2014-Jul-25 20:33N 51°23' E 004°09'5 5.2
2014-Jul-25 19:34N 51°21' E 004°17'0 0.1
2014-Jul-25 18:33N 51°21' E 004°17'2 2.1
2014-Jul-25 17:32N 51°19' E 004°20'0 0.0
2014-Jul-25 16:29N 51°19' E 004°20'0 0.0
2014-Jul-25 15:32N 51°19' E 004°20'0 0.0
2014-Jul-25 14:32N 51°20' E 004°20'0 0.0
2014-Jul-25 13:29N 51°19' E 004°20'0 0.0
2014-Jul-25 12:32N 51°19' E 004°20'0 0.0
2014-Jul-25 11:32N 51°19' E 004°20'0 0.0
2014-Jul-25 10:32N 51°19' E 004°20'0 0.0
2014-Jul-25 09:32N 51°19' E 004°20'0 0.0
2014-Jul-25 08:32N 51°20' E 004°20'0 0.0
2014-Jul-25 07:32N 51°19' E 004°20'0 0.0
2014-Jul-25 06:32N 51°19' E 004°20'0 0.0
2014-Jul-25 05:32N 51°19' E 004°20'0 0.0
2014-Jul-25 04:32N 51°19' E 004°20'0 0.0
2014-Jul-25 03:32N 51°20' E 004°20'2 2.0
2014-Jul-25 02:34N 51°21' E 004°17'0 0.0
2014-Jul-25 01:34N 51°21' E 004°17'3 2.5
2014-Jul-25 00:33N 51°22' E 004°14'5 5.3
2014-Jul-24 23:34N 51°22' E 004°05'6 6.3
2014-Jul-24 22:33N 51°22' E 003°55'1313.2
2014-Jul-24 21:33N 51°26' E 003°35'1615.5
2014-Jul-24 20:34N 51°38' E 003°20'1111.3
2014-Jul-24 19:33N 51°49' E 003°13'1 0.6
2014-Jul-24 18:33N 51°49' E 003°13'3 3.4
2014-Jul-24 17:33N 51°50' E 003°19'1312.7
2014-Jul-24 16:33N 51°54' E 003°39'4 3.8
2014-Jul-24 15:32N 51°56' E 003°43'0 0.1
2014-Jul-24 14:32N 51°56' E 003°44'0 0.1
2014-Jul-24 13:32N 51°56' E 003°43'0 0.0
2014-Jul-24 12:32N 51°56' E 003°43'0 0.1
2014-Jul-24 11:32N 51°56' E 003°43'0 0.2
2014-Jul-24 10:32N 51°56' E 003°43'0 0.0
2014-Jul-24 09:32N 51°56' E 003°43'0 0.0
2014-Jul-24 08:32N 51°56' E 003°43'0 0.0
2014-Jul-24 07:32N 51°56' E 003°43'0 0.0
2014-Jul-24 06:32N 51°56' E 003°43'0 0.0
2014-Jul-24 05:32N 51°56' E 003°43'0 0.0
2014-Jul-24 04:32N 51°56' E 003°43'0 0.0
2014-Jul-24 03:32N 51°56' E 003°43'0 0.1
2014-Jul-24 02:32N 51°56' E 003°44'0 0.1
2014-Jul-24 01:32N 51°56' E 003°43'0 0.0
2014-Jul-24 00:32N 51°56' E 003°44'0 0.0
2014-Jul-23 23:32N 51°56' E 003°43'0 0.2
2014-Jul-23 22:32N 51°56' E 003°43'0 0.1
2014-Jul-23 21:32N 51°56' E 003°43'0 0.0
2014-Jul-23 20:32N 51°56' E 003°43'0 0.0
2014-Jul-23 19:32N 51°56' E 003°43'0 0.0
2014-Jul-23 18:32N 51°56' E 003°43'0 0.0
2014-Jul-23 17:32N 51°56' E 003°43'0 0.0
2014-Jul-23 16:32N 51°56' E 003°43'0 0.1
2014-Jul-23 15:32N 51°56' E 003°43'0 0.1
2014-Jul-23 14:32N 51°56' E 003°43'0 0.1
2014-Jul-23 13:32N 51°56' E 003°43'0 0.0
2014-Jul-23 12:26N 51°56' E 003°44'0 0.0
2014-Jul-23 11:32N 51°56' E 003°44'0 0.2
2014-Jul-23 10:29N 51°56' E 003°43'0 0.0
2014-Jul-23 09:32N 51°56' E 003°43'0 0.0
2014-Jul-23 08:32N 51°56' E 003°43'0 0.0
2014-Jul-23 07:32N 51°56' E 003°43'0 0.0
2014-Jul-23 06:32N 51°56' E 003°43'0 0.0
2014-Jul-23 05:32N 51°56' E 003°43'0 0.0
2014-Jul-23 04:32N 51°56' E 003°43'0 0.0
2014-Jul-23 03:29N 51°56' E 003°43'0 0.1
2014-Jul-23 02:32N 51°56' E 003°44'0 0.1
2014-Jul-23 01:32N 51°56' E 003°44'0 0.0
2014-Jul-23 00:32N 51°56' E 003°44'0 0.1
2014-Jul-22 23:32N 51°56' E 003°43'0 0.2
2014-Jul-22 22:32N 51°56' E 003°43'0 0.0
2014-Jul-22 21:32N 51°56' E 003°43'0 0.1
2014-Jul-22 20:32N 51°56' E 003°43'0 0.0
2014-Jul-22 19:32N 51°56' E 003°43'0 0.0
2014-Jul-22 18:32N 51°56' E 003°43'0 0.0
2014-Jul-22 17:32N 51°56' E 003°43'0 0.0
2014-Jul-22 16:32N 51°56' E 003°43'0 0.0
2014-Jul-22 15:32N 51°56' E 003°43'0 0.0
2014-Jul-22 14:32N 51°56' E 003°43'0 0.0
2014-Jul-22 13:32N 51°56' E 003°44'0 0.0
2014-Jul-22 12:32N 51°56' E 003°44'0 0.1
2014-Jul-22 11:29N 51°56' E 003°43'0 0.0
2014-Jul-22 10:32N 51°56' E 003°44'0 0.1
2014-Jul-22 09:29N 51°56' E 003°43'0 0.1
2014-Jul-22 08:32N 51°56' E 003°43'0 0.1
2014-Jul-22 07:29N 51°56' E 003°43'0 0.0
2014-Jul-22 06:23N 51°56' E 003°43'0 0.0
2014-Jul-22 05:23N 51°56' E 003°43'0 0.0
2014-Jul-22 04:29N 51°56' E 003°43'  

Dump ship's entire track history